createdAt,value
2019-05-23T00:00:28.979Z,2.97
2019-05-23T00:02:57.660Z,3.07
2019-05-23T00:05:38.679Z,2.80
2019-05-23T00:08:07.488Z,4.10
2019-05-23T00:10:36.339Z,2.87
2019-05-23T00:13:05.210Z,3.17
2019-05-23T00:15:36.253Z,2.90
2019-05-23T00:18:05.280Z,3.27
2019-05-23T00:20:33.653Z,2.63
2019-05-23T00:23:02.650Z,2.67
2019-05-23T00:25:30.987Z,2.90
2019-05-23T00:27:58.355Z,3.00
2019-05-23T00:30:27.459Z,2.83
2019-05-23T00:32:56.255Z,2.87
2019-05-23T00:35:25.097Z,2.80
2019-05-23T00:37:53.139Z,3.23
2019-05-23T00:40:21.406Z,2.87
2019-05-23T00:42:50.519Z,3.10
2019-05-23T00:45:17.986Z,2.97
2019-05-23T00:47:47.114Z,2.60
2019-05-23T00:50:16.152Z,3.37
2019-05-23T00:52:43.417Z,3.00
2019-05-23T00:55:11.055Z,3.10
2019-05-23T00:57:40.143Z,2.77
2019-05-23T01:00:09.251Z,2.73
2019-05-23T01:02:36.728Z,3.47
2019-05-23T01:05:06.646Z,3.47
2019-05-23T01:07:34.894Z,4.13
2019-05-23T01:10:03.122Z,3.10
2019-05-23T01:12:31.505Z,3.17
2019-05-23T01:14:58.745Z,2.60
2019-05-23T01:17:25.941Z,3.13
2019-05-23T01:19:54.675Z,2.90
2019-05-23T01:22:22.127Z,2.83
2019-05-23T01:24:50.938Z,3.53
2019-05-23T01:27:18.499Z,2.80
2019-05-23T01:29:49.710Z,3.57
2019-05-23T01:32:19.396Z,3.50
2019-05-23T01:34:47.627Z,3.60
2019-05-23T01:37:15.841Z,2.97
2019-05-23T01:39:43.037Z,3.20
2019-05-23T01:42:11.571Z,3.67
2019-05-23T01:44:39.822Z,2.90
2019-05-23T01:47:08.655Z,3.43
2019-05-23T01:49:35.830Z,3.10
2019-05-23T01:52:04.638Z,2.40
2019-05-23T01:54:31.814Z,3.43
2019-05-23T01:57:00.473Z,3.57
2019-05-23T01:59:28.183Z,2.53
2019-05-23T02:01:56.137Z,2.50
2019-05-23T02:04:23.575Z,2.83
2019-05-23T02:06:51.013Z,3.07
2019-05-23T02:09:19.377Z,3.13
2019-05-23T02:11:47.628Z,2.47
2019-05-23T02:14:14.806Z,2.67
2019-05-23T02:16:42.258Z,2.77
2019-05-23T02:19:13.549Z,3.03
2019-05-23T02:21:40.745Z,3.63
2019-05-23T02:24:08.951Z,3.73
2019-05-23T02:26:37.301Z,2.60
2019-05-23T02:29:05.547Z,2.80
2019-05-23T02:31:32.730Z,3.20
2019-05-23T02:34:01.242Z,4.23
2019-05-23T02:36:28.406Z,2.97
2019-05-23T02:39:15.175Z,2.80
2019-05-23T02:41:49.881Z,3.63
2019-05-23T02:44:18.713Z,3.20
2019-05-23T02:46:50.244Z,2.80
2019-05-23T02:49:19.089Z,2.80
2019-05-23T02:51:47.116Z,4.50
2019-05-23T02:54:16.150Z,3.93
2019-05-23T02:56:43.335Z,3.23
2019-05-23T02:59:15.557Z,3.80
2019-05-23T03:01:49.102Z,3.53
2019-05-23T03:04:18.026Z,3.63
2019-05-23T03:06:45.285Z,3.07
2019-05-23T03:09:12.475Z,3.17
2019-05-23T03:11:39.757Z,2.83
2019-05-23T03:14:07.010Z,3.47
2019-05-23T03:16:34.276Z,4.40
2019-05-23T03:19:03.817Z,4.53
2019-05-23T03:21:31.063Z,2.87
2019-05-23T03:23:59.589Z,3.20
2019-05-23T03:26:31.234Z,2.97
2019-05-23T03:28:59.391Z,3.60
2019-05-23T03:31:31.921Z,3.43
2019-05-23T03:33:57.145Z,3.60
2019-05-23T03:36:25.060Z,2.93
2019-05-23T03:38:53.171Z,2.97
2019-05-23T03:41:21.570Z,3.60
2019-05-23T03:43:48.808Z,3.50
2019-05-23T03:46:23.498Z,3.17
2019-05-23T03:48:51.514Z,3.07
2019-05-23T03:51:20.468Z,3.13
2019-05-23T03:53:47.652Z,4.17
2019-05-23T03:56:15.715Z,3.70
2019-05-23T03:58:42.882Z,3.17
2019-05-23T04:01:11.781Z,3.40
2019-05-23T04:03:40.696Z,4.33
2019-05-23T04:06:08.077Z,4.73
2019-05-23T04:08:35.932Z,3.67
2019-05-23T04:11:04.169Z,3.50
2019-05-23T04:13:31.346Z,3.70
2019-05-23T04:15:59.085Z,3.43
2019-05-23T04:18:27.330Z,3.40
2019-05-23T04:20:54.496Z,2.97
2019-05-23T04:23:22.267Z,3.60
2019-05-23T04:25:49.458Z,3.10
2019-05-23T04:28:16.893Z,3.13
2019-05-23T04:30:44.590Z,3.43
2019-05-23T04:33:12.058Z,3.00
2019-05-23T04:35:39.259Z,3.73
2019-05-23T04:38:06.977Z,3.20
2019-05-23T04:40:34.233Z,3.20
2019-05-23T04:43:01.419Z,3.27
2019-05-23T04:45:28.661Z,4.53
2019-05-23T04:47:55.860Z,3.60
2019-05-23T04:50:23.041Z,3.67
2019-05-23T04:52:50.910Z,3.73
2019-05-23T04:55:18.361Z,4.20
2019-05-23T04:57:45.558Z,4.13
2019-05-23T05:00:14.804Z,4.50
2019-05-23T05:02:42.252Z,3.77
2019-05-23T05:05:09.790Z,4.60
2019-05-23T05:07:38.912Z,4.73
2019-05-23T05:10:07.131Z,4.13
2019-05-23T05:12:34.595Z,4.20
2019-05-23T05:15:01.995Z,3.87
2019-05-23T05:17:29.590Z,4.40
2019-05-23T05:19:56.830Z,4.00
2019-05-23T05:22:23.996Z,3.73
2019-05-23T05:24:51.190Z,4.07
2019-05-23T05:27:20.023Z,3.80
2019-05-23T05:29:47.212Z,3.80
2019-05-23T05:32:16.160Z,4.17
2019-05-23T05:34:43.335Z,4.20
2019-05-23T05:37:10.527Z,3.73
2019-05-23T05:39:38.567Z,3.57
2019-05-23T05:42:07.480Z,3.40
2019-05-23T05:44:35.106Z,3.20
2019-05-23T05:47:03.382Z,3.57
2019-05-23T05:49:30.623Z,3.27
2019-05-23T05:51:57.817Z,2.83
2019-05-23T05:54:24.995Z,3.17
2019-05-23T05:56:52.177Z,3.33
2019-05-23T05:59:19.446Z,2.80
2019-05-23T06:01:47.150Z,2.57
2019-05-23T06:04:14.359Z,2.60
2019-05-23T06:06:43.181Z,2.90
2019-05-23T06:09:12.075Z,3.27
2019-05-23T06:11:39.279Z,3.03
2019-05-23T06:14:07.594Z,3.67
2019-05-23T06:16:35.365Z,3.00
2019-05-23T06:19:04.361Z,2.67
2019-05-23T06:21:32.615Z,3.17
2019-05-23T06:24:00.168Z,2.70
2019-05-23T06:26:27.624Z,3.53
2019-05-23T06:28:55.852Z,2.87
2019-05-23T06:31:23.303Z,3.23
2019-05-23T06:33:51.553Z,2.93
2019-05-23T06:36:18.725Z,2.90
2019-05-23T06:38:45.951Z,2.73
2019-05-23T06:41:13.931Z,3.10
2019-05-23T06:43:41.184Z,3.13
2019-05-23T06:46:08.359Z,2.90
2019-05-23T06:48:36.338Z,2.47
2019-05-23T06:51:03.640Z,2.93
2019-05-23T06:53:31.676Z,2.77
2019-05-23T06:55:58.846Z,2.47
2019-05-23T06:58:26.256Z,2.57
2019-05-23T07:00:53.549Z,2.87
2019-05-23T07:03:20.753Z,2.63
2019-05-23T07:05:47.976Z,2.50
2019-05-23T07:08:15.172Z,1.90
2019-05-23T07:10:44.141Z,2.60
2019-05-23T07:13:13.388Z,2.60
2019-05-23T07:15:40.559Z,2.63
2019-05-23T07:18:08.227Z,3.70
2019-05-23T07:20:35.406Z,2.10
2019-05-23T07:23:02.574Z,2.53
2019-05-23T07:25:29.825Z,2.10
2019-05-23T07:27:57.029Z,2.10
2019-05-23T07:30:24.597Z,2.10
2019-05-23T07:32:51.841Z,2.20
2019-05-23T07:35:19.625Z,1.90
2019-05-23T07:37:46.849Z,2.40
2019-05-23T07:40:14.416Z,1.80
2019-05-23T07:42:42.142Z,1.70
2019-05-23T07:45:10.938Z,1.97
2019-05-23T07:47:40.146Z,1.37
2019-05-23T07:50:07.026Z,1.80
2019-05-23T07:52:34.214Z,1.90
2019-05-23T07:55:09.055Z,1.73
2019-05-23T07:57:37.423Z,1.40
2019-05-23T08:00:07.221Z,1.50
2019-05-23T08:02:36.499Z,1.53
2019-05-23T08:05:08.790Z,1.27
2019-05-23T08:07:37.037Z,1.43
2019-05-23T08:10:07.761Z,1.43
2019-05-23T08:12:35.190Z,1.20
2019-05-23T08:15:03.405Z,1.10
2019-05-23T08:17:30.603Z,1.63
2019-05-23T08:19:57.844Z,1.53
2019-05-23T08:22:25.791Z,2.00
2019-05-23T08:24:52.977Z,1.50
2019-05-23T08:27:20.792Z,1.43
2019-05-23T08:29:48.239Z,1.90
2019-05-23T08:32:15.674Z,1.53
2019-05-23T08:34:43.221Z,1.67
2019-05-23T08:37:12.492Z,1.90
2019-05-23T08:39:41.403Z,1.97
2019-05-23T08:42:09.649Z,1.70
2019-05-23T08:44:36.823Z,1.83
2019-05-23T08:47:05.667Z,1.70
2019-05-23T08:49:32.908Z,1.70
2019-05-23T08:52:00.101Z,1.70
2019-05-23T08:54:27.358Z,1.63
2019-05-23T08:56:54.537Z,1.97
2019-05-23T08:59:22.597Z,1.73
2019-05-23T09:01:49.823Z,1.60
2019-05-23T09:04:18.377Z,1.47
2019-05-23T09:06:46.642Z,1.60
2019-05-23T09:09:29.236Z,1.90
2019-05-23T09:11:44.876Z,1.83
2019-05-23T09:14:13.125Z,1.53
2019-05-23T09:16:40.590Z,1.00
2019-05-23T09:19:07.834Z,1.47
2019-05-23T09:21:35.212Z,1.10
2019-05-23T09:24:03.667Z,1.30
2019-05-23T09:26:31.269Z,1.40
2019-05-23T09:28:59.510Z,1.27
2019-05-23T09:31:27.729Z,1.17
2019-05-23T09:33:54.885Z,1.40
2019-05-23T09:36:22.054Z,1.30
2019-05-23T09:38:49.247Z,1.37
2019-05-23T09:41:16.410Z,1.07
2019-05-23T09:43:43.628Z,1.50
2019-05-23T09:46:10.814Z,1.03
2019-05-23T09:48:38.058Z,1.00
2019-05-23T09:51:05.326Z,1.10
2019-05-23T09:53:33.176Z,1.87
2019-05-23T09:56:00.718Z,1.00
2019-05-23T09:58:27.957Z,1.10
2019-05-23T10:00:55.182Z,0.87
2019-05-23T10:03:22.442Z,1.10
2019-05-23T10:05:49.990Z,2.03
2019-05-23T10:08:17.930Z,1.07
2019-05-23T10:10:45.413Z,1.00
2019-05-23T10:13:12.910Z,2.07
2019-05-23T10:15:59.722Z,1.10
2019-05-23T10:18:26.886Z,1.33
2019-05-23T10:20:54.121Z,1.00
2019-05-23T10:23:21.304Z,0.80
2019-05-23T10:25:48.467Z,1.00
2019-05-23T10:28:16.430Z,1.20
2019-05-23T10:30:43.604Z,1.50
2019-05-23T10:33:12.878Z,1.33
2019-05-23T10:35:40.454Z,1.20
2019-05-23T10:38:07.659Z,1.30
2019-05-23T10:40:34.914Z,1.17
2019-05-23T10:43:02.088Z,1.10
2019-05-23T10:45:29.285Z,1.50
2019-05-23T10:47:56.818Z,1.97
2019-05-23T10:50:23.980Z,2.00
2019-05-23T10:52:51.243Z,1.40
2019-05-23T10:55:18.411Z,1.40
2019-05-23T10:57:45.608Z,1.60
2019-05-23T11:00:14.488Z,1.30
2019-05-23T11:02:42.396Z,1.87
2019-05-23T11:05:13.457Z,1.33
2019-05-23T11:07:39.863Z,4.10
2019-05-23T11:10:08.106Z,4.73
2019-05-23T11:12:35.560Z,3.70
2019-05-23T11:15:03.816Z,3.10
2019-05-23T11:17:31.066Z,1.73
2019-05-23T11:19:58.250Z,3.40
2019-05-23T11:22:26.213Z,3.23
2019-05-23T11:24:53.428Z,4.37
2019-05-23T11:27:20.622Z,4.00
2019-05-23T11:29:47.870Z,3.60
2019-05-23T11:32:19.821Z,2.40
2019-05-23T11:34:45.755Z,3.30
2019-05-23T11:37:12.959Z,3.20
2019-05-23T11:39:48.857Z,2.80
2019-05-23T11:42:09.655Z,2.70
2019-05-23T11:44:36.875Z,2.73
2019-05-23T11:47:05.530Z,2.30
2019-05-23T11:49:32.795Z,2.00
2019-05-23T11:51:59.958Z,3.27
2019-05-23T11:54:27.151Z,2.17
2019-05-23T11:56:55.309Z,2.30
2019-05-23T11:59:22.551Z,2.63
2019-05-23T12:01:54.354Z,2.93
2019-05-23T12:04:22.618Z,3.03
2019-05-23T12:06:56.193Z,2.73
2019-05-23T12:09:24.055Z,2.20
2019-05-23T12:11:51.225Z,2.43
2019-05-23T12:14:18.405Z,2.40
2019-05-23T12:16:46.353Z,2.30
2019-05-23T12:19:13.792Z,2.40
2019-05-23T12:21:41.020Z,2.40
2019-05-23T12:24:08.243Z,2.03
2019-05-23T12:26:36.021Z,2.00
2019-05-23T12:29:03.401Z,2.30
2019-05-23T12:31:30.598Z,2.47
2019-05-23T12:33:57.859Z,1.73
2019-05-23T12:36:26.071Z,1.97
2019-05-23T12:38:53.521Z,2.23
2019-05-23T12:41:20.724Z,1.77
2019-05-23T12:43:48.422Z,1.93
2019-05-23T12:46:15.640Z,1.90
2019-05-23T12:48:49.963Z,1.90
2019-05-23T12:51:27.822Z,1.97
2019-05-23T12:53:55.011Z,1.97
2019-05-23T12:56:22.932Z,2.20
2019-05-23T12:58:50.377Z,2.07
2019-05-23T13:01:18.618Z,1.63
2019-05-23T13:03:47.001Z,1.50
2019-05-23T13:06:15.175Z,1.40
2019-05-23T13:08:42.756Z,1.53
2019-05-23T13:11:10.010Z,1.33
2019-05-23T13:13:37.259Z,1.60
2019-05-23T13:16:04.434Z,1.30
2019-05-23T13:18:31.627Z,1.00
2019-05-23T13:20:59.891Z,1.37
2019-05-23T13:23:28.214Z,1.23
2019-05-23T13:25:55.402Z,1.67
2019-05-23T13:28:22.579Z,1.57
2019-05-23T13:30:49.768Z,1.30
2019-05-23T13:33:17.250Z,1.40
2019-05-23T13:35:45.482Z,1.30
2019-05-23T13:38:12.708Z,1.13
2019-05-23T13:40:39.918Z,1.10
2019-05-23T13:43:09.004Z,1.70
2019-05-23T13:45:36.054Z,1.13
2019-05-23T13:48:03.609Z,1.10
2019-05-23T13:50:31.855Z,1.30
2019-05-23T13:52:59.030Z,1.30
2019-05-23T13:55:26.223Z,1.20
2019-05-23T13:57:53.458Z,1.47
2019-05-23T14:00:21.703Z,1.40
2019-05-23T14:02:49.157Z,1.13
2019-05-23T14:05:19.125Z,1.93
2019-05-23T14:07:45.782Z,1.30
2019-05-23T14:10:12.952Z,1.17
2019-05-23T14:12:40.652Z,1.07
2019-05-23T14:15:07.832Z,1.33
2019-05-23T14:17:36.674Z,1.23
2019-05-23T14:20:05.463Z,1.00
2019-05-23T14:22:34.324Z,1.07
2019-05-23T14:25:02.042Z,1.20
2019-05-23T14:27:48.792Z,1.20
2019-05-23T14:30:33.789Z,1.03
2019-05-23T14:33:02.702Z,1.13
2019-05-23T14:35:31.535Z,0.90
2019-05-23T14:38:00.440Z,2.30
2019-05-23T14:40:27.672Z,2.47
2019-05-23T14:42:56.586Z,2.47
2019-05-23T14:45:41.659Z,1.87
2019-05-23T14:48:19.451Z,1.40
2019-05-23T14:51:04.799Z,2.13
2019-05-23T14:53:33.620Z,1.67
2019-05-23T14:56:00.815Z,1.80
2019-05-23T14:58:28.046Z,1.83
2019-05-23T15:00:55.686Z,1.73
2019-05-23T15:03:23.262Z,2.17
2019-05-23T15:05:50.456Z,2.47
2019-05-23T15:08:17.736Z,1.30
2019-05-23T15:10:45.518Z,1.40
2019-05-23T15:13:13.067Z,1.40
2019-05-23T15:15:40.580Z,1.30
2019-05-23T15:18:07.987Z,1.20
2019-05-23T15:20:36.211Z,1.23
2019-05-23T15:23:03.449Z,1.07
2019-05-23T15:25:30.646Z,1.10
2019-05-23T15:27:57.917Z,0.97
2019-05-23T15:30:25.195Z,0.93
2019-05-23T15:32:52.411Z,0.83
2019-05-23T15:35:20.159Z,0.93
2019-05-23T15:37:47.426Z,1.30
2019-05-23T15:40:14.634Z,1.10
2019-05-23T15:42:41.841Z,1.13
2019-05-23T15:45:09.049Z,1.53
2019-05-23T15:47:36.597Z,1.10
2019-05-23T15:50:11.397Z,1.00
2019-05-23T15:52:41.806Z,1.10
2019-05-23T15:55:10.632Z,1.00
2019-05-23T15:57:45.129Z,1.17
2019-05-23T16:00:30.427Z,0.93
2019-05-23T16:02:59.265Z,0.97
2019-05-23T16:05:27.219Z,1.63
2019-05-23T16:07:54.598Z,1.13
2019-05-23T16:10:23.025Z,1.20
2019-05-23T16:12:50.244Z,1.00
2019-05-23T16:15:17.583Z,0.97
2019-05-23T16:17:44.781Z,1.00
2019-05-23T16:20:11.986Z,1.07
2019-05-23T16:22:39.176Z,1.03
2019-05-23T16:25:06.389Z,1.13
2019-05-23T16:27:33.615Z,1.13
2019-05-23T16:30:00.909Z,1.13
2019-05-23T16:32:28.459Z,1.07
2019-05-23T16:34:55.691Z,1.23
2019-05-23T16:37:22.900Z,1.10
2019-05-23T16:39:50.341Z,0.97
2019-05-23T16:42:17.909Z,1.00
2019-05-23T16:44:45.108Z,0.80
2019-05-23T16:47:12.456Z,0.90
2019-05-23T16:49:39.734Z,0.80
2019-05-23T16:52:07.104Z,1.10
2019-05-23T16:54:36.001Z,0.70
2019-05-23T16:57:20.925Z,0.70
2019-05-23T16:59:52.411Z,1.07
2019-05-23T17:02:23.978Z,0.90
2019-05-23T17:05:09.440Z,0.87
2019-05-23T17:07:42.414Z,0.70
2019-05-23T17:10:11.275Z,1.07
2019-05-23T17:12:45.954Z,0.93
2019-05-23T17:15:21.843Z,0.90
2019-05-23T17:18:06.984Z,1.10
2019-05-23T17:20:44.300Z,1.43
2019-05-23T17:23:22.092Z,4.20
2019-05-23T17:25:59.815Z,1.97
2019-05-23T17:28:37.520Z,2.80
2019-05-23T17:31:12.363Z,2.30
2019-05-23T17:33:39.672Z,3.80
2019-05-23T17:36:06.941Z,3.07
2019-05-23T17:38:34.161Z,2.70
2019-05-23T17:41:01.424Z,1.37
2019-05-23T17:43:29.582Z,0.90
2019-05-23T17:45:56.853Z,1.10
2019-05-23T17:48:24.060Z,1.10
2019-05-23T17:50:51.367Z,1.07
2019-05-23T17:53:19.817Z,0.90
2019-05-23T17:55:47.073Z,1.13
2019-05-23T17:58:14.652Z,1.00
2019-05-23T18:00:43.514Z,1.00
2019-05-23T18:03:12.093Z,1.00
2019-05-23T18:05:39.614Z,1.20
2019-05-23T18:08:08.607Z,1.00
2019-05-23T18:10:44.676Z,1.43
2019-05-23T18:13:06.041Z,1.10
2019-05-23T18:15:33.331Z,0.90
2019-05-23T18:18:01.707Z,1.00
2019-05-23T18:20:29.833Z,0.77
2019-05-23T18:22:57.401Z,1.00
2019-05-23T18:25:25.805Z,0.73
2019-05-23T18:27:54.019Z,0.87
2019-05-23T18:30:25.811Z,0.77
2019-05-23T18:32:54.687Z,1.00
2019-05-23T18:35:21.904Z,1.00
2019-05-23T18:37:49.162Z,0.80
2019-05-23T18:40:16.521Z,0.80
2019-05-23T18:42:45.412Z,1.30
2019-05-23T18:45:13.575Z,1.00
2019-05-23T18:47:42.650Z,1.07
2019-05-23T18:50:11.732Z,1.20
2019-05-23T18:52:39.035Z,1.10
2019-05-23T18:55:06.333Z,1.20
2019-05-23T18:57:33.619Z,1.00
2019-05-23T19:00:00.849Z,1.30
2019-05-23T19:02:29.108Z,1.83
2019-05-23T19:04:56.454Z,1.50
2019-05-23T19:07:24.237Z,1.57
2019-05-23T19:09:51.432Z,1.70
2019-05-23T19:12:18.833Z,1.70
2019-05-23T19:14:46.145Z,1.60
2019-05-23T19:17:13.431Z,1.27
2019-05-23T19:19:40.786Z,1.40
2019-05-23T19:22:08.002Z,2.83
2019-05-23T19:24:36.158Z,2.07
2019-05-23T19:27:03.430Z,2.30
2019-05-23T19:29:30.741Z,1.70
2019-05-23T19:31:59.479Z,2.80
2019-05-23T19:34:26.723Z,1.90
2019-05-23T19:36:54.386Z,1.93
2019-05-23T19:39:22.167Z,2.43
2019-05-23T19:41:49.741Z,1.77
2019-05-23T19:44:16.997Z,2.77
2019-05-23T19:46:44.892Z,1.93
2019-05-23T19:49:13.203Z,2.00
2019-05-23T19:51:41.361Z,2.27
2019-05-23T19:54:08.632Z,2.10
2019-05-23T19:56:36.427Z,2.50
2019-05-23T19:59:05.422Z,2.30
2019-05-23T20:01:34.257Z,2.57
2019-05-23T20:04:01.539Z,2.23
2019-05-23T20:06:29.414Z,2.77
2019-05-23T20:08:59.228Z,2.03
2019-05-23T20:11:26.938Z,2.43
2019-05-23T20:13:54.155Z,2.50
2019-05-23T20:16:21.361Z,2.30
2019-05-23T20:18:48.646Z,2.80
2019-05-23T20:21:16.925Z,2.27
2019-05-23T20:23:44.254Z,2.37
2019-05-23T20:26:11.667Z,2.07
2019-05-23T20:28:40.092Z,2.20
2019-05-23T20:31:08.163Z,2.50
2019-05-23T20:33:35.382Z,2.73
2019-05-23T20:36:04.466Z,2.63
2019-05-23T20:38:31.703Z,2.40
2019-05-23T20:40:58.929Z,2.60
2019-05-23T20:43:26.149Z,3.17
2019-05-23T20:45:53.366Z,2.87
2019-05-23T20:48:20.718Z,3.20
2019-05-23T20:50:47.965Z,2.80
2019-05-23T20:53:15.254Z,2.80
2019-05-23T20:55:42.641Z,2.70
2019-05-23T20:58:09.871Z,2.97
2019-05-23T21:00:38.790Z,2.83
2019-05-23T21:03:06.668Z,3.00
2019-05-23T21:05:33.875Z,2.77
2019-05-23T21:08:01.094Z,2.40
2019-05-23T21:10:39.107Z,3.03
2019-05-23T21:13:06.288Z,3.00
2019-05-23T21:15:33.523Z,2.93
2019-05-23T21:18:00.721Z,3.00
2019-05-23T21:20:27.936Z,2.50
2019-05-23T21:22:55.142Z,3.20
2019-05-23T21:25:22.423Z,3.00
2019-05-23T21:27:49.635Z,3.20
2019-05-23T21:30:16.851Z,3.27
2019-05-23T21:32:44.123Z,3.20
2019-05-23T21:35:11.576Z,3.57
2019-05-23T21:37:38.901Z,3.63
2019-05-23T21:40:06.272Z,2.83
2019-05-23T21:42:46.598Z,3.27
2019-05-23T21:45:02.412Z,3.30
2019-05-23T21:47:29.636Z,2.93
2019-05-23T21:49:56.856Z,3.20
2019-05-23T21:52:24.186Z,3.53
2019-05-23T21:54:51.485Z,3.80
2019-05-23T21:57:18.740Z,4.37
2019-05-23T21:59:45.961Z,3.23
2019-05-23T22:02:14.821Z,3.60
2019-05-23T22:04:43.753Z,3.47
2019-05-23T22:07:11.029Z,3.53
2019-05-23T22:09:38.243Z,3.37
2019-05-23T22:12:06.923Z,3.90
2019-05-23T22:14:34.124Z,3.77
2019-05-23T22:17:01.409Z,3.73
2019-05-23T22:19:30.057Z,4.13
2019-05-23T22:21:57.273Z,3.80
2019-05-23T22:24:25.066Z,4.07
2019-05-23T22:26:52.254Z,3.90
2019-05-23T22:29:19.963Z,4.57
2019-05-23T22:31:47.159Z,3.63
2019-05-23T22:34:22.102Z,3.90
2019-05-23T22:36:49.343Z,3.83
2019-05-23T22:39:16.738Z,3.77
2019-05-23T22:41:43.951Z,3.90
2019-05-23T22:44:12.029Z,3.53
2019-05-23T22:46:42.262Z,4.13
2019-05-23T22:49:20.770Z,3.90
2019-05-23T22:51:48.021Z,4.30
2019-05-23T22:54:15.282Z,3.40
2019-05-23T22:56:42.510Z,3.87
2019-05-23T22:59:09.798Z,3.03
2019-05-23T23:01:37.343Z,3.50
2019-05-23T23:04:04.563Z,4.20
2019-05-23T23:06:32.305Z,3.73
2019-05-23T23:08:59.518Z,3.37
2019-05-23T23:11:26.746Z,3.47
2019-05-23T23:13:54.011Z,3.63
2019-05-23T23:16:21.241Z,3.60
2019-05-23T23:18:48.724Z,3.60
2019-05-23T23:21:15.946Z,3.50
2019-05-23T23:23:43.159Z,4.10
2019-05-23T23:26:10.359Z,3.87
2019-05-23T23:28:38.125Z,3.60
2019-05-23T23:31:05.337Z,3.37
2019-05-23T23:33:32.623Z,3.83
2019-05-23T23:35:59.829Z,4.67
2019-05-23T23:38:27.025Z,3.70
2019-05-23T23:40:54.256Z,3.97
2019-05-23T23:43:21.525Z,3.77
2019-05-23T23:46:06.639Z,4.00
2019-05-23T23:48:51.770Z,3.63
2019-05-23T23:51:36.858Z,3.63
2019-05-23T23:54:21.879Z,3.83
2019-05-23T23:57:08.555Z,3.57
2019-05-23T23:59:35.247Z,4.30
